Time;durP1;ratioP1;P1;durP2;ratioP2;P2;SDS_P1;SDS_P2;PMS_P1;PMS_P2;Temp;Humidity;BMP_temperature;BMP_pressure;BME280_temperature;BME280_humidity;BME280_pressure;Samples;Min_cycle;Max_cycle;Signal;HPM_P1;HPM_P2
2024/03/22 00:01:46;;;;;;;15.13;7.57;;;;;;;-145.69;70.38;52319.63;5114689;28;20642;-80
2024/03/22 00:04:16;;;;;;;12.90;6.90;;;;;;;-145.69;69.73;52333.47;5114907;28;20274;-80
2024/03/22 00:06:43;;;;;;;14.20;8.30;;;;;;;-145.69;70.50;52289.91;5115053;28;20210;-82
2024/03/22 00:09:12;;;;;;;19.33;8.57;;;;;;;-145.69;71.63;52317.66;5113986;28;20204;-81
2024/03/22 00:11:39;;;;;;;21.87;8.73;;;;;;;-145.69;71.93;52301.81;5114298;28;20285;-82
2024/03/22 00:14:07;;;;;;;20.23;8.13;;;;;;;-145.69;72.30;52309.72;5114775;28;20229;-81
2024/03/22 00:16:33;;;;;;;14.50;7.37;;;;;;;-145.69;71.94;52325.56;5114746;28;20194;-81
2024/03/22 00:19:05;;;;;;;18.17;8.87;;;;;;;-145.69;72.29;52349.31;5122285;27;20200;-80
2024/03/22 00:21:31;;;;;;;16.37;8.43;;;;;;;-145.69;71.33;52345.38;5094183;28;20236;-81
2024/03/22 00:24:00;;;;;;;14.93;8.33;;;;;;;-145.69;72.45;52301.81;5094132;28;20201;-80
2024/03/22 00:26:26;;;;;;;16.27;7.93;;;;;;;-145.69;71.87;52321.59;5093896;28;20206;-80
2024/03/22 00:28:53;;;;;;;16.80;8.73;;;;;;;-145.69;71.82;52355.28;5096391;28;20564;-81
2024/03/22 00:31:18;;;;;;;15.77;7.67;;;;;;;-145.69;71.74;52327.53;5114084;28;20344;-81
2024/03/22 00:33:45;;;;;;;13.77;7.97;;;;;;;-145.69;71.85;52297.84;5113979;28;20213;-81
2024/03/22 00:36:12;;;;;;;14.57;7.77;;;;;;;-145.69;72.08;52341.41;5114275;28;20210;-82
2024/03/22 00:38:38;;;;;;;15.37;8.20;;;;;;;-145.69;72.44;52313.69;5113224;28;20651;-81
2024/03/22 00:41:07;;;;;;;18.90;8.00;;;;;;;-145.69;72.47;52347.34;5113759;28;20249;-81
2024/03/22 00:43:35;;;;;;;16.83;7.87;;;;;;;-145.69;71.80;52337.44;5113932;28;20274;-82
2024/03/22 00:46:02;;;;;;;19.33;8.63;;;;;;;-145.69;72.33;52317.66;5113551;28;20201;-81
2024/03/22 00:48:29;;;;;;;15.37;8.00;;;;;;;-145.69;72.31;52343.38;5114030;28;20232;-81
2024/03/22 00:50:57;;;;;;;14.90;7.23;;;;;;;-145.69;71.51;52319.63;5113330;28;20232;-81
2024/03/22 00:53:26;;;;;;;15.87;7.70;;;;;;;-145.69;71.77;52329.53;5110388;28;20312;-80
2024/03/22 00:55:52;;;;;;;18.23;7.20;;;;;;;-145.69;72.27;52361.22;5113756;28;20225;-81
2024/03/22 00:58:19;;;;;;;16.57;7.17;;;;;;;-145.69;71.99;52331.50;5113843;28;20711;-81
2024/03/22 01:00:48;;;;;;;14.20;7.70;;;;;;;-145.69;72.41;52347.34;5118367;27;20209;-81
2024/03/22 01:03:14;;;;;;;16.03;7.43;;;;;;;-145.69;72.56;52335.47;5113776;28;20200;-81
2024/03/22 01:05:42;;;;;;;16.17;8.63;;;;;;;-145.69;73.42;52325.56;5113652;27;20296;-80
2024/03/22 01:08:08;;;;;;;18.53;8.70;;;;;;;-145.69;73.82;52325.56;5134098;27;20236;-81
2024/03/22 01:10:38;;;;;;;18.60;8.93;;;;;;;-145.69;73.89;52345.38;5121933;27;20625;-81
2024/03/22 01:13:06;;;;;;;20.57;8.67;;;;;;;-145.69;73.23;52333.47;5113590;28;20238;-81
2024/03/22 01:15:31;;;;;;;17.03;8.73;;;;;;;-145.69;73.23;52331.50;5113407;28;20277;-81
2024/03/22 01:17:58;;;;;;;22.10;8.30;;;;;;;-145.69;72.98;52305.75;5112742;28;20691;-81
2024/03/22 01:20:24;;;;;;;17.93;8.37;;;;;;;-145.69;73.61;52319.63;5092496;28;20213;-81
2024/03/22 01:22:50;;;;;;;17.67;8.87;;;;;;;-145.69;73.15;52331.50;5093167;28;20198;-81
2024/03/22 01:25:16;;;;;;;22.37;9.43;;;;;;;-145.69;73.73;52345.38;5112536;28;20194;-81
2024/03/22 01:27:44;;;;;;;20.77;8.47;;;;;;;-145.69;73.68;52347.34;5113154;28;20670;-81
2024/03/22 01:30:11;;;;;;;21.93;9.30;;;;;;;-145.69;73.96;52365.16;5113324;28;20256;-81
2024/03/22 01:32:38;;;;;;;19.73;9.77;;;;;;;-145.69;73.30;52313.69;5113489;28;20201;-81
2024/03/22 01:35:04;;;;;;;21.63;9.90;;;;;;;-145.69;73.75;52321.59;5112887;28;20200;-81
2024/03/22 01:37:30;;;;;;;16.93;8.87;;;;;;;-145.69;73.20;52329.53;5113341;28;20189;-81
2024/03/22 01:39:56;;;;;;;21.00;9.33;;;;;;;-145.69;73.07;52323.59;5113162;28;20206;-81
2024/03/22 01:42:22;;;;;;;22.50;9.10;;;;;;;-145.69;74.15;52341.41;5112920;28;20197;-81
2024/03/22 01:44:50;;;;;;;19.47;9.97;;;;;;;-145.69;73.28;52341.41;5113203;28;20197;-80
2024/03/22 01:47:17;;;;;;;17.33;9.27;;;;;;;-145.69;73.35;52319.63;5112944;28;20231;-81
2024/03/22 01:49:43;;;;;;;23.10;9.77;;;;;;;-145.69;73.58;52349.31;5112752;28;20205;-81
2024/03/22 01:52:09;;;;;;;27.53;9.43;;;;;;;-145.69;73.42;52309.72;5113045;28;20707;-81
2024/03/22 01:54:35;;;;;;;16.20;8.83;;;;;;;-145.69;73.45;52313.69;5113338;28;20205;-81
2024/03/22 01:57:02;;;;;;;19.40;8.70;;;;;;;-145.69;73.29;52339.44;5112306;28;20196;-81
2024/03/22 01:59:28;;;;;;;21.17;9.43;;;;;;;-145.69;73.30;52301.81;5112430;28;20246;-81
2024/03/22 02:01:56;;;;;;;20.03;8.70;;;;;;;-145.69;73.40;52343.38;5112721;28;20651;-81
2024/03/22 02:04:22;;;;;;;21.23;10.33;;;;;;;-145.69;73.68;52323.59;5112312;28;20193;-80
2024/03/22 02:06:48;;;;;;;19.33;9.23;;;;;;;-145.69;73.88;52313.69;5113369;28;20212;-80
2024/03/22 02:09:15;;;;;;;19.60;10.30;;;;;;;-145.69;73.44;52321.59;5112690;28;20548;-80
2024/03/22 02:11:41;;;;;;;28.97;9.87;;;;;;;-145.69;73.72;52319.63;5112256;28;20228;-80
2024/03/22 02:14:10;;;;;;;18.37;9.27;;;;;;;-145.69;73.91;52319.63;5112560;28;20250;-80
2024/03/22 02:16:36;;;;;;;21.53;8.93;;;;;;;-145.69;73.34;52323.59;5112845;28;20284;-81
2024/03/22 02:19:03;;;;;;;19.27;8.70;;;;;;;-145.69;73.96;52343.38;5113699;28;20193;-80
2024/03/22 02:21:30;;;;;;;22.33;9.77;;;;;;;-145.69;74.05;52333.47;5112527;28;20193;-80
2024/03/22 02:23:56;;;;;;;22.73;9.07;;;;;;;-145.69;73.87;52303.78;5112450;28;20201;-80
2024/03/22 02:26:23;;;;;;;18.53;8.77;;;;;;;-145.69;73.77;52357.25;5112729;28;20251;-81
2024/03/22 02:28:48;;;;;;;20.03;9.10;;;;;;;-145.69;73.72;52359.22;5112585;28;20194;-80
2024/03/22 02:31:15;;;;;;;18.13;9.03;;;;;;;-145.69;73.52;52335.47;5112468;28;20231;-79
2024/03/22 02:33:40;;;;;;;21.83;9.47;;;;;;;-145.69;74.05;52321.59;5112695;28;20205;-79
2024/03/22 02:36:07;;;;;;;21.63;8.33;;;;;;;-145.69;74.62;52343.38;5112326;28;20212;-81
2024/03/22 02:38:32;;;;;;;18.30;9.13;;;;;;;-145.69;74.67;52329.53;5112455;28;20198;-82
2024/03/22 02:41:00;;;;;;;19.00;9.60;;;;;;;-145.69;73.68;52339.44;5112393;28;20200;-81
2024/03/22 02:43:26;;;;;;;15.93;8.57;;;;;;;-145.69;74.49;52325.56;5112617;28;20602;-81
2024/03/22 02:45:52;;;;;;;22.27;9.13;;;;;;;-145.69;74.66;52323.59;5112239;28;20208;-80
2024/03/22 02:48:18;;;;;;;20.27;9.27;;;;;;;-145.69;75.40;52345.38;5112044;28;20198;-80
2024/03/22 02:50:44;;;;;;;20.67;8.77;;;;;;;-145.69;75.24;52325.56;5112424;28;20237;-81
2024/03/22 02:53:10;;;;;;;17.43;8.77;;;;;;;-145.69;76.09;52353.28;5112330;28;20219;-80
2024/03/22 02:55:37;;;;;;;19.77;9.83;;;;;;;-145.69;75.23;52343.38;5112373;28;20197;-80
2024/03/22 02:58:05;;;;;;;20.93;9.97;;;;;;;-145.69;75.33;52293.88;5105825;28;20671;-79
2024/03/22 03:00:31;;;;;;;21.27;9.93;;;;;;;-145.69;75.13;52337.44;5092224;28;20740;-80
2024/03/22 03:02:57;;;;;;;25.30;9.80;;;;;;;-145.69;75.99;52321.59;5095764;28;20301;-80
2024/03/22 03:05:24;;;;;;;17.57;10.00;;;;;;;-145.69;75.45;52313.69;5095483;28;20700;-80
2024/03/22 03:07:50;;;;;;;18.53;10.30;;;;;;;-145.69;75.82;52331.50;5118046;27;20208;-81
2024/03/22 03:10:17;;;;;;;23.20;10.27;;;;;;;-145.69;75.82;52357.25;5115958;28;20280;-81
2024/03/22 03:12:42;;;;;;;26.83;10.03;;;;;;;-145.69;75.42;52355.28;5115947;28;20675;-81
2024/03/22 03:15:10;;;;;;;27.48;13.82;;;;;;;-145.69;77.40;52331.50;5114923;28;20431;-81
2024/03/22 03:17:36;;;;;;;26.37;11.43;;;;;;;-145.69;76.12;52367.16;5115493;28;20201;-80
2024/03/22 03:20:07;;;;;;;24.77;10.33;;;;;;;-145.69;75.92;52323.59;5114626;28;20212;-80
2024/03/22 03:22:33;;;;;;;26.77;10.87;;;;;;;-145.69;76.12;52323.59;5115295;28;20196;-81
2024/03/22 03:24:59;;;;;;;25.87;10.50;;;;;;;-145.69;75.79;52365.16;5115727;28;20205;-80
2024/03/22 03:27:25;;;;;;;23.40;10.07;;;;;;;-145.69;76.56;52359.22;5115660;28;20198;-80
2024/03/22 03:29:51;;;;;;;24.73;10.57;;;;;;;-145.69;76.19;52321.59;5115194;28;20636;-81
2024/03/22 03:32:18;;;;;;;22.13;10.17;;;;;;;-145.69;75.67;52343.38;5115459;28;20221;-81
2024/03/22 03:34:44;;;;;;;21.53;10.00;;;;;;;-145.69;75.89;52339.44;5115622;27;20246;-80
2024/03/22 03:37:10;;;;;;;22.87;10.67;;;;;;;-145.69;75.35;52309.72;5124115;27;20287;-81
2024/03/22 03:39:36;;;;;;;22.43;9.90;;;;;;;-145.69;75.72;52331.50;5118150;27;20531;-81
2024/03/22 03:42:02;;;;;;;23.70;10.10;;;;;;;-145.69;75.74;52323.59;5115246;28;20652;-81
2024/03/22 03:44:29;;;;;;;22.87;9.50;;;;;;;-145.69;75.74;52319.63;5115391;28;20197;-81
2024/03/22 03:46:54;;;;;;;22.07;9.83;;;;;;;-145.69;76.07;52341.41;5115246;28;20205;-80
2024/03/22 03:49:22;;;;;;;19.20;10.50;;;;;;;-145.69;75.80;52305.75;5115184;28;20204;-80
2024/03/22 03:51:50;;;;;;;21.57;10.53;;;;;;;-145.69;76.07;52343.38;5114920;28;20233;-81
2024/03/22 03:54:34;;;;;;;23.40;9.63;;;;;;;-145.69;76.28;52319.63;5193232;27;20539;-79
2024/03/22 03:56:59;;;;;;;18.97;9.47;;;;;;;-145.69;76.37;52289.91;5193575;27;20202;-80
2024/03/22 03:59:26;;;;;;;22.73;10.47;;;;;;;-145.69;76.09;52315.66;5192160;27;20198;-79
2024/03/22 04:01:51;;;;;;;24.03;11.17;;;;;;;-145.69;75.73;52341.41;5190048;27;20548;-80
2024/03/22 04:04:18;;;;;;;31.43;12.00;;;;;;;-145.69;75.84;52325.56;5193144;27;20194;-82
2024/03/22 04:06:44;;;;;;;24.73;10.30;;;;;;;-145.69;75.43;52353.28;5188313;27;20218;-79
2024/03/22 04:09:10;;;;;;;26.60;10.57;;;;;;;-145.69;76.11;52345.38;5172393;27;20650;-83
2024/03/22 04:11:37;;;;;;;27.37;10.37;;;;;;;-145.69;75.81;52341.41;5172381;27;20603;-81
2024/03/22 04:14:05;;;;;;;20.63;9.87;;;;;;;-145.69;75.87;52345.38;5172090;27;20231;-81
2024/03/22 04:16:30;;;;;;;23.43;10.23;;;;;;;-145.69;76.35;52317.66;5171829;27;20235;-80
2024/03/22 04:18:57;;;;;;;20.70;10.33;;;;;;;-145.69;76.43;52301.81;5181787;27;20303;-81
2024/03/22 04:21:22;;;;;;;22.67;10.67;;;;;;;-145.69;76.66;52337.44;5193033;27;20644;-80
2024/03/22 04:23:49;;;;;;;29.27;11.03;;;;;;;-145.69;76.21;52369.13;5192859;27;20198;-81
2024/03/22 04:26:15;;;;;;;22.80;10.67;;;;;;;-145.69;76.60;52309.72;5193110;27;20199;-81
2024/03/22 04:28:43;;;;;;;27.83;11.17;;;;;;;-145.69;76.41;52317.66;5191068;27;20187;-81
2024/03/22 04:31:09;;;;;;;19.40;10.13;;;;;;;-145.69;76.28;52353.28;5192842;27;20195;-81
2024/03/22 04:33:37;;;;;;;20.13;9.93;;;;;;;-145.69;75.87;52329.53;5192622;27;20585;-81
2024/03/22 04:36:03;;;;;;;22.20;10.67;;;;;;;-145.69;76.04;52347.34;5192527;27;20195;-81
2024/03/22 04:38:30;;;;;;;31.43;11.07;;;;;;;-145.69;76.26;52317.66;5190163;27;20195;-80
2024/03/22 04:40:57;;;;;;;24.63;10.83;;;;;;;-145.69;75.63;52303.78;5192520;27;20202;-81
2024/03/22 04:43:25;;;;;;;22.67;11.07;;;;;;;-145.69;75.92;52339.44;5192684;27;20207;-81
2024/03/22 04:45:52;;;;;;;22.57;10.13;;;;;;;-145.69;76.12;52325.56;5192560;27;20203;-81
2024/03/22 04:48:20;;;;;;;23.33;9.83;;;;;;;-145.69;76.23;52323.59;5191879;27;20199;-81
2024/03/22 04:50:47;;;;;;;19.27;10.00;;;;;;;-145.69;75.82;52301.81;5171319;27;20286;-82
2024/03/22 04:53:14;;;;;;;22.33;10.20;;;;;;;-145.69;75.55;52337.44;5171913;27;20287;-82
2024/03/22 04:55:44;;;;;;;23.17;9.93;;;;;;;-145.69;76.09;52327.53;5187277;27;20576;-81
2024/03/22 04:58:11;;;;;;;23.13;9.53;;;;;;;-145.69;75.82;52337.44;5172681;27;20192;-81
2024/03/22 05:00:36;;;;;;;21.73;9.23;;;;;;;-145.69;75.88;52323.59;5181177;27;20665;-81
2024/03/22 05:03:05;;;;;;;19.53;9.33;;;;;;;-145.69;75.96;52321.59;5173903;27;20203;-81
2024/03/22 05:05:30;;;;;;;19.33;9.17;;;;;;;-145.69;76.30;52317.66;5180263;27;20191;-80
2024/03/22 05:07:57;;;;;;;23.80;9.17;;;;;;;-145.69;76.60;52357.25;5159567;27;20203;-80
2024/03/22 05:10:22;;;;;;;17.67;8.90;;;;;;;-145.69;76.88;52343.38;5157178;27;20192;-81
2024/03/22 05:12:49;;;;;;;24.40;9.27;;;;;;;-145.69;76.41;52329.53;5157102;27;20231;-81
2024/03/22 05:15:14;;;;;;;19.73;9.57;;;;;;;-145.69;76.36;52333.47;5156586;27;20211;-81
2024/03/22 05:17:43;;;;;;;19.17;9.47;;;;;;;-145.69;76.56;52325.56;5172536;27;20546;-81
2024/03/22 05:20:10;;;;;;;24.73;9.37;;;;;;;-145.69;76.49;52329.53;5177735;27;20654;-81
2024/03/22 05:22:37;;;;;;;21.43;9.87;;;;;;;-145.69;76.04;52333.47;5177798;27;20199;-81
2024/03/22 05:25:04;;;;;;;21.30;9.33;;;;;;;-145.69;76.17;52297.84;5177703;27;20231;-81
2024/03/22 05:27:33;;;;;;;23.73;9.30;;;;;;;-145.69;75.63;52317.66;5163640;27;20196;-81
2024/03/22 05:30:01;;;;;;;23.23;10.00;;;;;;;-145.69;75.60;52347.34;5156818;27;20204;-81
2024/03/22 05:32:27;;;;;;;17.80;9.40;;;;;;;-145.69;74.96;52325.56;5156318;27;20249;-81
2024/03/22 05:34:53;;;;;;;25.50;10.07;;;;;;;-145.69;75.21;52341.41;5159494;27;20208;-81
2024/03/22 05:37:21;;;;;;;22.13;9.83;;;;;;;-145.69;75.23;52319.63;5168754;27;20199;-81
2024/03/22 05:39:47;;;;;;;24.77;10.60;;;;;;;-145.69;75.00;52327.53;5177374;27;20199;-81
2024/03/22 05:42:13;;;;;;;25.43;9.63;;;;;;;-145.69;75.14;52339.44;5177347;27;20199;-81
2024/03/22 05:44:40;;;;;;;22.50;9.40;;;;;;;-145.69;75.03;52299.81;5177324;27;20191;-81
2024/03/22 05:47:09;;;;;;;21.17;9.10;;;;;;;-145.69;74.54;52353.28;5166914;27;20196;-81
2024/03/22 05:49:35;;;;;;;20.33;8.97;;;;;;;-145.69;74.39;52287.94;5156076;27;20200;-80
2024/03/22 05:52:03;;;;;;;19.63;8.77;;;;;;;-145.69;74.31;52313.69;5156536;27;20722;-82
2024/03/22 05:54:32;;;;;;;19.40;8.57;;;;;;;-145.69;73.94;52285.97;5155729;27;20236;-81
2024/03/22 05:56:58;;;;;;;17.03;8.57;;;;;;;-145.69;73.94;52301.81;5164693;27;20192;-81
2024/03/22 05:59:25;;;;;;;24.47;9.23;;;;;;;-145.69;73.80;52309.72;5173686;27;20625;-81
2024/03/22 06:01:54;;;;;;;18.60;8.73;;;;;;;-145.69;73.40;52325.56;5176887;27;20203;-82
2024/03/22 06:04:19;;;;;;;20.13;8.90;;;;;;;-145.69;73.67;52351.31;5163296;27;20211;-81
2024/03/22 06:06:46;;;;;;;17.33;8.30;;;;;;;-145.69;73.67;52337.44;5156030;27;20192;-81
2024/03/22 06:09:19;;;;;;;18.43;7.97;;;;;;;-145.69;73.19;52357.25;5155911;27;20204;-81
2024/03/22 06:11:53;;;;;;;15.23;8.30;;;;;;;-145.69;73.08;52341.41;5155855;27;20226;-81
2024/03/22 06:14:18;;;;;;;19.20;8.37;;;;;;;-145.69;73.41;52285.97;5155608;27;20582;-81
2024/03/22 06:16:45;;;;;;;16.80;8.13;;;;;;;-145.69;74.35;52323.59;5161038;27;20201;-81
2024/03/22 06:19:10;;;;;;;21.27;8.57;;;;;;;-145.69;74.34;52339.44;5176864;27;20191;-81
2024/03/22 06:21:37;;;;;;;20.13;9.23;;;;;;;-145.69;73.70;52349.31;5176645;27;20667;-81
2024/03/22 06:24:03;;;;;;;20.23;8.97;;;;;;;-145.69;73.94;52299.81;5176612;27;20202;-81
2024/03/22 06:26:29;;;;;;;15.83;8.07;;;;;;;-145.69;73.84;52333.47;5172443;27;20707;-81
2024/03/22 06:28:56;;;;;;;20.30;9.03;;;;;;;-145.69;73.47;52329.53;5155529;27;20192;-81
2024/03/22 06:31:23;;;;;;;21.63;9.93;;;;;;;-145.69;74.02;52343.38;5155674;27;20642;-81
2024/03/22 06:33:48;;;;;;;18.37;8.53;;;;;;;-145.69;73.60;52317.66;5156634;27;20264;-81
2024/03/22 06:36:14;;;;;;;21.57;7.13;;;;;;;-145.69;73.87;52321.59;5156399;27;20208;-81
2024/03/22 06:38:41;;;;;;;17.05;8.90;;;;;;;-145.69;75.36;52323.59;5175101;27;20427;-80
2024/03/22 06:41:06;;;;;;;18.63;8.23;;;;;;;-145.69;74.07;52337.44;5176094;27;20561;-82
2024/03/22 06:43:33;;;;;;;18.93;9.27;;;;;;;-145.69;74.27;52317.66;5176145;27;20195;-81
2024/03/22 06:45:59;;;;;;;22.50;8.40;;;;;;;-145.69;74.96;52305.75;5174786;27;20205;-81
2024/03/22 06:48:26;;;;;;;14.00;7.60;;;;;;;-145.69;74.46;52297.84;5176001;27;20237;-81
2024/03/22 06:50:51;;;;;;;17.47;8.00;;;;;;;-145.69;74.41;52317.66;5175996;27;20226;-81
2024/03/22 06:53:18;;;;;;;22.07;8.83;;;;;;;-145.69;75.11;52305.75;5175334;27;20634;-82
2024/03/22 06:55:44;;;;;;;19.83;8.83;;;;;;;-145.69;75.38;52325.56;5175875;27;20226;-81
2024/03/22 06:58:11;;;;;;;19.27;9.57;;;;;;;-145.69;75.32;52319.63;5156620;27;20283;-82
2024/03/22 07:00:36;;;;;;;18.40;8.40;;;;;;;-145.69;75.51;52309.72;5156425;27;20196;-82
2024/03/22 07:03:04;;;;;;;21.77;8.00;;;;;;;-145.69;75.45;52283.97;5157182;27;20693;-82
2024/03/22 07:05:30;;;;;;;19.23;7.80;;;;;;;-145.69;75.03;52303.78;5165203;27;20642;-81
2024/03/22 07:07:57;;;;;;;18.13;7.33;;;;;;;-145.69;74.61;52333.47;5154848;27;20203;-81
2024/03/22 07:10:24;;;;;;;15.60;7.90;;;;;;;-145.69;74.49;52307.75;5154780;27;20196;-80
2024/03/22 07:12:51;;;;;;;17.27;7.93;;;;;;;-145.69;75.11;52315.66;5171694;27;20190;-80
2024/03/22 07:15:16;;;;;;;17.50;7.47;;;;;;;-145.69;74.60;52295.84;5169310;27;20283;-80
2024/03/22 07:17:43;;;;;;;15.80;7.43;;;;;;;-145.69;74.51;52291.91;5154782;27;20625;-80
2024/03/22 07:20:10;;;;;;;10.87;6.27;;;;;;;-145.69;74.16;52295.84;5154920;27;20604;-80
2024/03/22 07:22:37;;;;;;;15.10;7.63;;;;;;;-145.69;74.56;52280.00;5154194;27;20196;-80
2024/03/22 07:25:02;;;;;;;14.37;6.53;;;;;;;-145.69;73.30;52323.59;5154432;27;20241;-80
2024/03/22 07:27:31;;;;;;;16.63;6.73;;;;;;;-145.69;71.63;52329.53;5154567;27;20200;-80
2024/03/22 07:29:56;;;;;;;12.67;6.17;;;;;;;-145.69;70.99;52276.06;5154831;27;20294;-80
2024/03/22 07:32:23;;;;;;;13.13;6.67;;;;;;;-145.69;70.25;52282.00;5165585;27;20281;-79
2024/03/22 07:34:48;;;;;;;10.87;6.03;;;;;;;-145.69;70.19;52276.06;5159764;27;20643;-80
2024/03/22 07:37:16;;;;;;;13.13;6.53;;;;;;;-145.69;70.31;52270.13;5154183;27;20196;-79
2024/03/22 07:39:41;;;;;;;11.53;6.23;;;;;;;-145.69;70.73;52293.88;5153962;27;20237;-80
2024/03/22 07:42:08;;;;;;;15.00;7.30;;;;;;;-145.69;69.03;52317.66;5162590;27;20198;-80
2024/03/22 07:44:33;;;;;;;14.97;7.20;;;;;;;-145.69;69.86;52256.25;5175431;27;20436;-80
2024/03/22 07:46:59;;;;;;;11.50;6.20;;;;;;;-145.69;69.19;52266.16;5175227;27;20259;-81
2024/03/22 07:49:25;;;;;;;11.63;6.22;;;;;;;-145.69;68.57;52315.66;5175261;27;20195;-80
2024/03/22 07:51:52;;;;;;;13.50;6.97;;;;;;;-145.69;67.40;52266.16;5170718;27;20559;-80
2024/03/22 07:54:20;;;;;;;17.97;7.10;;;;;;;-145.69;66.75;52272.09;5153847;27;20231;-80
2024/03/22 07:56:46;;;;;;;14.95;6.50;;;;;;;-145.69;65.14;52258.22;5154066;27;20207;-79
2024/03/22 07:59:12;;;;;;;11.88;5.60;;;;;;;-145.69;66.60;52307.75;5154349;27;20196;-80
2024/03/22 08:01:38;;;;;;;9.27;5.43;;;;;;;-145.69;65.68;52266.16;5155338;27;20192;-80
2024/03/22 08:04:04;;;;;;;11.13;5.47;;;;;;;-145.69;65.18;52240.41;5162638;27;20192;-80
2024/03/22 08:06:30;;;;;;;12.50;6.22;;;;;;;-145.69;60.58;52262.19;5174846;27;20222;-79
2024/03/22 08:08:56;;;;;;;10.88;5.55;;;;;;;-145.69;59.54;52206.75;5171889;27;20195;-79
2024/03/22 08:11:23;;;;;;;11.27;5.90;;;;;;;-145.69;58.64;52228.53;5162679;27;20199;-80
2024/03/22 08:13:49;;;;;;;12.40;5.25;;;;;;;-145.69;58.48;52232.50;5153876;27;20220;-80
2024/03/22 08:16:15;;;;;;;8.00;3.92;;;;;;;-145.69;57.69;52280.00;5154096;27;20199;-81
2024/03/22 08:18:41;;;;;;;9.35;4.93;;;;;;;-145.69;56.68;52232.50;5154131;27;20199;-81
2024/03/22 08:21:07;;;;;;;10.70;4.78;;;;;;;-145.69;53.83;52232.50;5154087;27;20221;-79
2024/03/22 08:23:34;;;;;;;8.43;4.88;;;;;;;-145.69;53.35;52232.50;5153963;27;20204;-79
2024/03/22 08:26:00;;;;;;;6.63;4.47;;;;;;;-145.69;53.72;52200.81;5153759;27;20769;-79
2024/03/22 08:28:27;;;;;;;8.68;4.70;;;;;;;-145.69;51.78;52254.28;5153823;27;20200;-80
2024/03/22 08:30:53;;;;;;;9.38;4.68;;;;;;;-145.69;52.75;52222.59;5160524;27;20187;-80
2024/03/22 08:33:19;;;;;;;8.48;4.75;;;;;;;-145.69;51.72;52226.53;5172755;27;20196;-80
2024/03/22 08:35:45;;;;;;;8.48;4.25;;;;;;;-145.69;49.84;52202.78;5153842;27;20192;-81
2024/03/22 08:38:11;;;;;;;8.00;4.10;;;;;;;-145.69;47.86;52224.56;5154094;27;20200;-81
2024/03/22 08:40:38;;;;;;;9.60;4.15;;;;;;;-145.69;47.60;52216.66;5160787;27;20256;-80
2024/03/22 08:43:03;;;;;;;10.75;5.00;;;;;;;-145.69;47.75;52230.50;5178731;27;20290;-80
2024/03/22 08:45:31;;;;;;;10.10;4.38;;;;;;;-145.69;47.60;52200.81;5178663;27;20206;-79
2024/03/22 08:47:57;;;;;;;11.23;4.60;;;;;;;-145.69;47.61;52204.75;5178369;27;20195;-79
2024/03/22 08:50:23;;;;;;;10.50;5.18;;;;;;;-145.69;47.78;52226.53;5175898;27;20244;-80
2024/03/22 08:52:49;;;;;;;8.98;4.65;;;;;;;-145.69;48.09;52214.66;5157616;27;20228;-81
2024/03/22 08:55:15;;;;;;;9.77;4.75;;;;;;;-145.69;47.93;52210.72;5157314;27;20637;-80
2024/03/22 08:57:41;;;;;;;13.30;5.07;;;;;;;-145.69;48.06;52214.66;5157326;27;20609;-80
2024/03/22 09:00:08;;;;;;;9.50;4.95;;;;;;;-145.69;48.16;52206.75;5157505;27;20200;-80
2024/03/22 09:02:35;;;;;;;11.60;4.82;;;;;;;-145.69;48.57;52210.72;5157399;27;20195;-80
2024/03/22 09:05:01;;;;;;;7.55;4.40;;;;;;;-145.69;48.92;52218.63;5172967;27;20222;-80
2024/03/22 09:07:27;;;;;;;10.27;4.75;;;;;;;-145.69;47.82;52196.84;5172596;27;20639;-79
2024/03/22 09:09:53;;;;;;;7.97;4.20;;;;;;;-145.69;46.84;52222.59;5175737;27;20188;-79
2024/03/22 09:12:19;;;;;;;7.85;4.78;;;;;;;-145.69;46.71;52179.03;5165908;27;20519;-79
2024/03/22 09:14:46;;;;;;;10.20;5.13;;;;;;;-145.69;46.69;52194.88;5172965;27;20291;-80
2024/03/22 09:17:11;;;;;;;9.75;4.65;;;;;;;-145.69;47.61;52214.66;5177992;27;20666;-82
2024/03/22 09:19:39;;;;;;;9.02;4.93;;;;;;;-145.69;49.30;52220.59;5176949;27;20255;-79
2024/03/22 09:22:05;;;;;;;18.30;5.22;;;;;;;-145.69;47.81;52198.81;5177946;27;20191;-80
2024/03/22 09:24:31;;;;;;;10.07;5.18;;;;;;;-145.69;47.92;52206.75;5177673;27;20199;-81
2024/03/22 09:26:58;;;;;;;13.63;5.80;;;;;;;-145.69;48.17;52208.72;5177651;27;20199;-82
2024/03/22 09:29:24;;;;;;;10.95;5.43;;;;;;;-145.69;45.88;52212.69;5177888;27;20195;-82
2024/03/22 09:31:50;;;;;;;8.82;4.40;;;;;;;-145.69;46.34;52208.72;5158132;27;20596;-80
2024/03/22 09:34:16;;;;;;;6.22;3.85;;;;;;;-145.69;47.25;52194.88;5156752;27;20218;-81
2024/03/22 09:36:43;;;;;;;9.45;4.43;;;;;;;-145.69;46.82;52204.75;5157037;27;20196;-80
2024/03/22 09:39:09;;;;;;;11.73;5.18;;;;;;;-145.69;47.11;52173.09;5175004;27;20195;-80
2024/03/22 09:41:43;;;;;;;11.30;4.53;;;;;;;-145.69;46.09;52157.25;5160114;27;20192;-80
2024/03/22 09:44:15;;;;;;;8.18;4.65;;;;;;;-145.69;46.28;52175.06;5156642;27;20207;-80
2024/03/22 09:46:43;;;;;;;10.02;4.25;;;;;;;-145.69;44.23;52220.59;5156444;27;20196;-79
2024/03/22 09:49:10;;;;;;;6.97;4.22;;;;;;;-145.69;43.31;52139.41;5156414;27;20204;-80
2024/03/22 09:51:38;;;;;;;6.03;3.60;;;;;;;-145.69;43.56;52228.53;5172737;27;20199;-80
2024/03/22 09:54:07;;;;;;;7.63;3.42;;;;;;;-145.69;43.19;52147.34;5177163;27;20237;-79
2024/03/22 09:56:36;;;;;;;5.78;3.47;;;;;;;-145.69;42.28;52169.13;5177056;27;20195;-80
2024/03/22 09:59:05;;;;;;;9.57;3.38;;;;;;;-145.69;41.38;52155.25;5176902;27;20195;-80
2024/03/22 10:01:32;;;;;;;6.28;2.35;;;;;;;-145.69;42.18;52159.22;5160801;27;20279;-79
2024/03/22 10:03:58;;;;;;;4.68;2.92;;;;;;;-145.69;39.41;52167.13;5160266;27;20619;-80
2024/03/22 10:06:24;;;;;;;5.00;2.90;;;;;;;-145.69;40.63;52147.34;5158626;27;20196;-80
2024/03/22 10:08:50;;;;;;;8.00;3.13;;;;;;;-145.69;39.77;52135.47;5155946;27;20199;-81
2024/03/22 10:11:18;;;;;;;3.90;2.35;;;;;;;-145.69;40.15;52157.25;5155707;27;20199;-80
2024/03/22 10:13:44;;;;;;;8.75;3.25;;;;;;;-145.69;39.72;52179.03;5156312;27;20220;-79
2024/03/22 10:16:19;;;;;;;9.85;3.15;;;;;;;-145.69;39.67;52155.25;5155520;27;20535;-79
2024/03/22 10:18:45;;;;;;;6.07;3.47;;;;;;;-145.69;40.29;52143.38;5155611;27;20195;-79
2024/03/22 10:21:14;;;;;;;8.18;3.33;;;;;;;-145.69;41.57;52186.94;5166643;27;20214;-79
2024/03/22 10:23:40;;;;;;;7.20;3.45;;;;;;;-145.69;41.57;52119.63;5176709;27;20203;-79
2024/03/22 10:26:06;;;;;;;9.48;3.20;;;;;;;-145.69;41.62;52143.38;5176395;27;20211;-79
2024/03/22 10:28:33;;;;;;;6.82;3.47;;;;;;;-145.69;41.20;52159.22;5176448;27;20191;-79
2024/03/22 10:31:00;;;;;;;7.32;3.50;;;;;;;-145.69;40.54;52182.97;5174907;27;20538;-79
2024/03/22 10:33:28;;;;;;;7.18;3.17;;;;;;;-145.69;41.19;52169.13;5174159;27;20233;-79
2024/03/22 10:35:55;;;;;;;6.15;2.85;;;;;;;-145.69;41.85;52153.28;5155140;27;20196;-80
2024/03/22 10:38:21;;;;;;;6.28;3.85;;;;;;;-145.69;41.18;52147.34;5155190;27;20204;-80
2024/03/22 10:40:49;;;;;;;7.93;3.72;;;;;;;-145.69;40.96;52143.38;5156354;27;20192;-79
2024/03/22 10:43:15;;;;;;;6.40;3.30;;;;;;;-145.69;41.36;52153.28;5155184;27;20613;-79
2024/03/22 10:45:43;;;;;;;9.48;3.60;;;;;;;-145.69;41.19;52151.28;5155417;27;20200;-79
2024/03/22 10:48:13;;;;;;;7.60;3.10;;;;;;;-145.69;41.11;52127.53;5156419;27;20188;-79
2024/03/22 10:50:44;;;;;;;7.65;3.60;;;;;;;-145.69;41.17;52159.22;5155106;27;20192;-79
2024/03/22 10:53:16;;;;;;;6.82;3.50;;;;;;;-145.69;40.74;52167.13;5154537;27;20281;-79
2024/03/22 10:55:44;;;;;;;6.22;3.17;;;;;;;-145.69;40.19;52145.34;5154660;27;20223;-79
2024/03/22 10:58:16;;;;;;;7.13;3.53;;;;;;;-145.69;39.73;52125.56;5173346;27;20196;-79
2024/03/22 11:00:51;;;;;;;5.45;2.80;;;;;;;-145.69;39.37;52117.63;5158651;27;20215;-79
2024/03/22 11:03:20;;;;;;;4.82;2.65;;;;;;;-145.69;39.99;52143.38;5155687;27;20195;-79
2024/03/22 11:05:46;;;;;;;2.22;1.83;;;;;;;-145.69;39.92;52139.41;5168372;27;20204;-80
2024/03/22 11:08:13;;;;;;;3.45;1.67;;;;;;;-145.69;38.87;52095.84;5154482;27;20287;-79